Time;durP1;ratioP1;P1;durP2;ratioP2;P2;SDS_P1;SDS_P2;PMS_P1;PMS_P2;Temp;Humidity;BMP_temperature;BMP_pressure;BME280_temperature;BME280_humidity;BME280_pressure;Samples;Min_cycle;Max_cycle;Signal;HPM_P1;HPM_P2
2023/10/29 00:01:04;;;;;;;13.00;4.82;;;12.80;99.90;;;;;;5092375;28;20120;-69
2023/10/29 00:03:30;;;;;;;12.75;6.00;;;12.80;99.90;;;;;;5104377;28;20110;-69
2023/10/29 00:05:55;;;;;;;10.82;5.95;;;12.80;99.90;;;;;;5106063;28;20051;-70
2023/10/29 00:08:21;;;;;;;11.45;5.70;;;12.80;99.90;;;;;;5104191;28;20020;-69
2023/10/29 00:10:46;;;;;;;9.25;4.80;;;12.80;99.90;;;;;;5101309;27;20019;-69
2023/10/29 00:13:12;;;;;;;6.20;4.50;;;12.80;99.90;;;;;;5100194;28;20468;-68
2023/10/29 00:15:38;;;;;;;5.07;3.65;;;12.80;99.90;;;;;;5101095;28;20039;-68
2023/10/29 00:18:08;;;;;;;7.70;3.85;;;12.80;99.90;;;;;;5095325;28;20040;-68
2023/10/29 00:20:34;;;;;;;10.18;4.95;;;12.80;99.90;;;;;;5095671;28;20024;-68
2023/10/29 00:23:00;;;;;;;9.18;4.72;;;12.90;99.90;;;;;;5093269;28;20047;-68
2023/10/29 00:25:25;;;;;;;10.35;5.05;;;12.90;99.90;;;;;;5103447;28;20027;-68
2023/10/29 00:27:51;;;;;;;9.02;4.20;;;12.90;99.90;;;;;;5115952;28;20034;-68
2023/10/29 00:30:16;;;;;;;7.13;4.50;;;12.90;99.90;;;;;;5115585;28;20403;-68
2023/10/29 00:32:42;;;;;;;9.07;4.55;;;12.90;99.90;;;;;;5098242;28;20380;-68
2023/10/29 00:35:09;;;;;;;9.02;4.35;;;13.00;99.90;;;;;;5095303;28;20031;-68
2023/10/29 00:37:34;;;;;;;8.20;4.13;;;13.00;99.90;;;;;;5095628;28;20036;-67
2023/10/29 00:40:00;;;;;;;6.20;3.35;;;13.00;99.90;;;;;;5095139;28;20047;-69
2023/10/29 00:42:26;;;;;;;7.43;3.70;;;13.00;99.90;;;;;;5094278;28;20051;-66
2023/10/29 00:44:51;;;;;;;8.32;3.33;;;13.10;99.90;;;;;;5095240;28;20020;-67
2023/10/29 00:47:17;;;;;;;6.68;3.28;;;13.10;99.90;;;;;;5094688;28;20380;-67
2023/10/29 00:49:43;;;;;;;8.25;3.05;;;13.10;99.90;;;;;;5095354;28;20448;-67
2023/10/29 00:52:08;;;;;;;5.13;2.83;;;13.10;99.90;;;;;;5093614;28;20024;-67
2023/10/29 00:54:34;;;;;;;5.03;2.78;;;13.20;99.90;;;;;;5094508;28;20044;-67
2023/10/29 00:57:00;;;;;;;6.55;2.97;;;13.20;99.90;;;;;;5094925;28;20368;-67
2023/10/29 00:59:30;;;;;;;4.10;2.55;;;13.20;99.90;;;;;;5094518;28;20028;-68
2023/10/29 01:01:55;;;;;;;4.65;2.30;;;13.30;99.90;;;;;;5093477;28;20032;-67
2023/10/29 01:04:21;;;;;;;5.70;2.13;;;13.30;99.90;;;;;;5094039;28;20123;-67
2023/10/29 01:06:48;;;;;;;6.95;2.33;;;13.40;99.90;;;;;;5094758;28;20024;-67
2023/10/29 01:09:14;;;;;;;4.68;2.13;;;13.40;99.90;;;;;;5094481;28;20093;-67
2023/10/29 01:11:40;;;;;;;5.60;2.50;;;13.40;99.90;;;;;;5094516;28;20088;-67
2023/10/29 01:14:05;;;;;;;4.60;2.40;;;13.50;99.90;;;;;;5094619;28;20468;-67
2023/10/29 01:16:31;;;;;;;8.10;2.05;;;13.50;99.90;;;;;;5094097;28;20028;-66
2023/10/29 01:18:58;;;;;;;7.75;2.60;;;13.50;99.90;;;;;;5094493;28;20028;-69
2023/10/29 01:21:26;;;;;;;5.45;1.83;;;13.50;99.90;;;;;;5093802;28;20494;-67
2023/10/29 01:23:51;;;;;;;6.85;2.63;;;13.60;99.90;;;;;;5093590;28;20035;-67
2023/10/29 01:26:17;;;;;;;4.50;2.15;;;13.60;99.90;;;;;;5093740;28;20032;-67
2023/10/29 01:28:43;;;;;;;6.57;2.05;;;13.60;99.90;;;;;;5094159;28;20058;-67
2023/10/29 01:31:09;;;;;;;4.63;1.75;;;13.70;99.90;;;;;;5093464;28;20387;-67
2023/10/29 01:33:35;;;;;;;7.18;2.30;;;13.70;99.90;;;;;;5094278;28;20114;-67
2023/10/29 01:36:01;;;;;;;8.35;2.45;;;13.80;99.90;;;;;;5094202;28;20047;-68
2023/10/29 01:38:26;;;;;;;4.47;1.83;;;13.80;99.90;;;;;;5094613;28;20024;-67
2023/10/29 01:40:52;;;;;;;6.30;2.13;;;13.80;99.90;;;;;;5094189;28;20429;-68
2023/10/29 01:43:17;;;;;;;3.97;1.90;;;13.70;99.90;;;;;;5092931;28;20123;-68
2023/10/29 01:45:43;;;;;;;5.50;1.83;;;13.70;99.90;;;;;;5094048;28;20039;-69
2023/10/29 01:48:08;;;;;;;8.23;1.60;;;13.70;99.90;;;;;;5093973;28;20024;-68
2023/10/29 01:50:35;;;;;;;5.13;1.98;;;13.70;99.90;;;;;;5093881;28;20047;-69
2023/10/29 01:53:01;;;;;;;7.95;2.00;;;13.60;99.90;;;;;;5092884;28;20044;-69
2023/10/29 01:55:27;;;;;;;4.40;2.10;;;13.60;99.90;;;;;;5093588;28;20039;-69
2023/10/29 01:57:52;;;;;;;4.10;1.67;;;13.60;99.90;;;;;;5093855;28;20047;-69
2023/10/29 02:00:19;;;;;;;8.07;1.98;;;13.60;99.90;;;;;;5093305;28;20032;-68
2023/10/29 02:02:46;;;;;;;6.97;2.05;;;13.60;99.90;;;;;;5092825;28;20028;-68
2023/10/29 02:05:12;;;;;;;8.02;2.70;;;13.60;99.90;;;;;;5094006;28;20031;-69
2023/10/29 02:07:37;;;;;;;6.93;1.75;;;13.60;99.90;;;;;;5093805;28;20032;-67
2023/10/29 02:10:04;;;;;;;5.68;2.03;;;13.60;99.90;;;;;;5093203;28;20021;-67
2023/10/29 02:12:30;;;;;;;5.40;1.83;;;13.60;99.90;;;;;;5093326;28;20058;-67
2023/10/29 02:14:56;;;;;;;6.45;1.30;;;13.60;99.90;;;;;;5093498;28;20020;-67
2023/10/29 02:17:24;;;;;;;2.10;1.20;;;13.60;99.90;;;;;;5093162;28;20047;-66
2023/10/29 02:19:55;;;;;;;4.30;1.52;;;13.60;99.90;;;;;;5093193;28;20032;-67
2023/10/29 02:22:22;;;;;;;2.72;1.38;;;13.70;99.90;;;;;;5093258;28;20483;-66
2023/10/29 02:24:47;;;;;;;3.47;1.42;;;13.70;99.90;;;;;;5092785;28;20052;-67
2023/10/29 02:27:13;;;;;;;2.30;1.23;;;13.70;99.90;;;;;;5092571;28;20063;-67
2023/10/29 02:29:38;;;;;;;4.22;1.35;;;13.70;99.90;;;;;;5092798;28;20147;-66
2023/10/29 02:32:04;;;;;;;5.55;1.40;;;13.80;99.90;;;;;;5092662;28;20039;-67
2023/10/29 02:34:30;;;;;;;6.28;1.10;;;13.80;99.90;;;;;;5093411;28;20089;-67
2023/10/29 02:36:55;;;;;;;3.60;0.90;;;13.70;99.90;;;;;;5092990;28;20032;-67
2023/10/29 02:39:21;;;;;;;1.65;0.70;;;13.70;99.90;;;;;;5093029;28;20032;-66
2023/10/29 02:41:46;;;;;;;1.85;0.80;;;13.70;99.90;;;;;;5092548;28;20036;-66
2023/10/29 02:44:12;;;;;;;3.00;0.88;;;13.70;99.90;;;;;;5093088;28;20028;-67
2023/10/29 02:46:37;;;;;;;3.88;1.00;;;13.60;99.90;;;;;;5093283;28;20020;-67
2023/10/29 02:49:03;;;;;;;3.45;0.98;;;13.60;99.90;;;;;;5093507;28;20021;-67
2023/10/29 02:51:29;;;;;;;3.10;0.77;;;13.50;99.90;;;;;;5091874;28;20031;-67
2023/10/29 02:53:54;;;;;;;4.35;1.30;;;13.50;99.90;;;;;;5092290;28;20377;-67
2023/10/29 02:56:20;;;;;;;4.32;0.80;;;13.40;99.90;;;;;;5095813;28;20031;-66
2023/10/29 02:58:45;;;;;;;2.05;0.77;;;13.40;99.90;;;;;;5097188;28;20352;-66
2023/10/29 03:01:15;;;;;;;1.42;0.77;;;13.30;99.90;;;;;;5096406;28;20066;-67
2023/10/29 03:03:41;;;;;;;4.45;0.70;;;13.20;99.90;;;;;;5096760;28;20028;-66
2023/10/29 03:06:08;;;;;;;4.30;0.80;;;13.10;99.90;;;;;;5096368;28;20507;-67
2023/10/29 03:08:35;;;;;;;1.80;0.60;;;13.10;99.90;;;;;;5096332;28;20468;-67
2023/10/29 03:11:01;;;;;;;3.13;0.77;;;13.00;99.90;;;;;;5096774;28;20037;-67
2023/10/29 03:13:27;;;;;;;4.35;0.80;;;13.00;99.90;;;;;;5096848;28;20081;-66
2023/10/29 03:15:52;;;;;;;2.88;0.82;;;13.00;99.90;;;;;;5096598;28;20035;-67
2023/10/29 03:18:18;;;;;;;2.25;0.80;;;12.90;99.90;;;;;;5096431;28;20036;-67
2023/10/29 03:20:43;;;;;;;4.22;0.65;;;12.80;99.90;;;;;;5096965;28;20094;-67
2023/10/29 03:23:09;;;;;;;3.67;0.75;;;12.80;99.90;;;;;;5096405;28;20024;-67
2023/10/29 03:25:35;;;;;;;3.20;0.80;;;12.70;99.90;;;;;;5095028;28;20023;-66
2023/10/29 03:28:01;;;;;;;2.70;0.50;;;12.60;99.90;;;;;;5096481;28;20376;-66
2023/10/29 03:30:26;;;;;;;3.17;0.80;;;12.60;99.90;;;;;;5096037;28;20059;-67
2023/10/29 03:32:52;;;;;;;2.08;0.60;;;12.60;99.90;;;;;;5096789;28;20031;-66
2023/10/29 03:35:18;;;;;;;3.10;0.82;;;12.60;99.90;;;;;;5096540;28;20400;-66
2023/10/29 03:37:43;;;;;;;3.75;0.70;;;12.60;99.90;;;;;;5096318;28;20105;-67
2023/10/29 03:40:09;;;;;;;2.83;0.88;;;12.60;99.90;;;;;;5095453;28;20020;-67
2023/10/29 03:42:35;;;;;;;5.72;0.80;;;12.60;99.90;;;;;;5095446;28;20032;-67
2023/10/29 03:45:00;;;;;;;2.88;0.80;;;12.50;99.90;;;;;;5093469;28;20146;-67
2023/10/29 03:47:27;;;;;;;2.88;0.90;;;12.50;99.90;;;;;;5075764;28;20071;-67
2023/10/29 03:49:53;;;;;;;2.67;0.70;;;12.40;99.90;;;;;;5074114;28;20028;-66
2023/10/29 03:52:19;;;;;;;3.90;0.90;;;12.40;99.90;;;;;;5091540;28;20081;-66
2023/10/29 03:54:45;;;;;;;2.20;0.98;;;12.40;99.90;;;;;;5094544;28;20391;-66
2023/10/29 03:57:11;;;;;;;2.40;0.75;;;12.50;99.90;;;;;;5094236;28;20032;-67
2023/10/29 03:59:36;;;;;;;3.58;1.45;;;12.50;99.90;;;;;;5095408;28;20031;-66
2023/10/29 04:02:02;;;;;;;4.45;1.42;;;12.40;99.90;;;;;;5095452;28;20152;-67
2023/10/29 04:04:27;;;;;;;4.78;1.08;;;12.40;99.90;;;;;;5095920;28;20040;-66
2023/10/29 04:06:53;;;;;;;2.92;1.30;;;12.40;99.90;;;;;;5095037;28;20024;-67
2023/10/29 04:09:18;;;;;;;3.75;1.27;;;12.40;99.90;;;;;;5095602;28;20069;-67
2023/10/29 04:11:44;;;;;;;2.08;1.10;;;12.40;99.90;;;;;;5096106;28;20030;-67
2023/10/29 04:14:09;;;;;;;2.20;1.10;;;12.40;99.90;;;;;;5095594;28;20021;-67
2023/10/29 04:16:35;;;;;;;4.03;1.17;;;12.40;99.90;;;;;;5095218;28;20096;-67
2023/10/29 04:19:00;;;;;;;5.88;1.50;;;12.40;99.90;;;;;;5095330;28;20107;-67
2023/10/29 04:21:26;;;;;;;7.10;1.33;;;12.50;99.90;;;;;;5095497;28;20439;-67
2023/10/29 04:23:52;;;;;;;4.03;1.35;;;12.50;99.90;;;;;;5095159;28;20028;-68
2023/10/29 04:26:18;;;;;;;5.28;1.35;;;12.50;99.90;;;;;;5095240;28;20533;-69
2023/10/29 04:28:43;;;;;;;4.35;1.38;;;12.50;99.90;;;;;;5095275;28;20388;-68
2023/10/29 04:31:09;;;;;;;3.47;1.10;;;12.60;99.90;;;;;;5095457;28;20384;-68
2023/10/29 04:33:34;;;;;;;5.03;1.50;;;12.50;99.90;;;;;;5095389;28;20020;-68
2023/10/29 04:36:00;;;;;;;3.55;1.02;;;12.50;99.90;;;;;;5095330;28;20016;-68
2023/10/29 04:38:26;;;;;;;2.67;1.00;;;12.50;99.90;;;;;;5094195;28;20036;-67
2023/10/29 04:40:51;;;;;;;2.65;0.95;;;12.50;99.90;;;;;;5095406;28;20020;-67
2023/10/29 04:43:17;;;;;;;2.03;0.70;;;12.50;99.90;;;;;;5094585;28;20118;-67
2023/10/29 04:45:43;;;;;;;3.45;0.88;;;12.60;99.90;;;;;;5095555;28;20032;-67
2023/10/29 04:48:08;;;;;;;2.22;0.70;;;12.50;99.90;;;;;;5094724;28;20048;-67
2023/10/29 04:50:34;;;;;;;1.27;0.50;;;12.50;99.90;;;;;;5094345;28;20468;-67
2023/10/29 04:53:02;;;;;;;2.30;0.73;;;12.40;99.90;;;;;;5094378;28;20438;-67
2023/10/29 04:55:28;;;;;;;2.50;0.80;;;12.30;99.90;;;;;;5095004;28;20076;-67
2023/10/29 04:57:53;;;;;;;1.05;0.57;;;12.30;99.90;;;;;;5094929;28;20040;-67
2023/10/29 05:00:19;;;;;;;3.58;0.80;;;12.20;99.90;;;;;;5094691;28;20031;-67
2023/10/29 05:02:44;;;;;;;3.90;0.93;;;12.20;99.90;;;;;;5094358;28;20040;-67
2023/10/29 05:05:10;;;;;;;5.63;1.30;;;12.10;99.90;;;;;;5095109;28;20063;-68
2023/10/29 05:07:36;;;;;;;6.90;1.30;;;12.10;99.90;;;;;;5094150;28;20097;-69
2023/10/29 05:10:03;;;;;;;5.10;1.30;;;12.10;99.90;;;;;;5094856;28;20028;-69
2023/10/29 05:12:29;;;;;;;6.28;1.60;;;12.00;99.90;;;;;;5094729;28;20035;-69
2023/10/29 05:14:54;;;;;;;3.83;1.40;;;11.90;99.90;;;;;;5094144;28;20028;-69
2023/10/29 05:17:20;;;;;;;3.92;1.42;;;11.90;99.90;;;;;;5093491;28;20441;-68
2023/10/29 05:19:45;;;;;;;4.47;1.38;;;11.80;99.90;;;;;;5094525;28;20028;-69
2023/10/29 05:22:11;;;;;;;9.15;1.73;;;11.80;99.90;;;;;;5094581;28;20028;-69
2023/10/29 05:24:37;;;;;;;7.60;1.50;;;11.80;99.90;;;;;;5094098;28;20036;-69
2023/10/29 05:27:03;;;;;;;4.63;1.15;;;11.80;99.90;;;;;;5093110;28;20024;-68
2023/10/29 05:29:28;;;;;;;9.02;1.60;;;11.80;99.90;;;;;;5094569;28;20039;-68
2023/10/29 05:31:54;;;;;;;8.70;1.60;;;11.80;99.90;;;;;;5094878;28;20028;-67
2023/10/29 05:34:20;;;;;;;7.57;1.60;;;11.80;99.90;;;;;;5094124;28;20102;-68
2023/10/29 05:36:45;;;;;;;6.47;1.55;;;11.90;99.90;;;;;;5093974;28;20482;-68
2023/10/29 05:39:11;;;;;;;8.15;2.03;;;11.90;99.90;;;;;;5094121;28;20032;-68
2023/10/29 05:41:37;;;;;;;5.82;1.25;;;12.00;99.90;;;;;;5094349;28;20031;-67
2023/10/29 05:44:02;;;;;;;18.52;1.73;;;12.00;99.90;;;;;;5094239;28;20031;-68
2023/10/29 05:46:28;;;;;;;6.43;1.40;;;12.00;99.90;;;;;;5093472;28;20158;-67
2023/10/29 05:48:53;;;;;;;4.32;1.40;;;12.00;99.90;;;;;;5093481;28;20392;-67
2023/10/29 05:51:19;;;;;;;13.82;1.98;;;12.10;99.90;;;;;;5094000;28;20476;-67
2023/10/29 05:53:47;;;;;;;10.05;2.10;;;12.10;99.90;;;;;;5094435;28;20070;-67
2023/10/29 05:56:12;;;;;;;8.82;1.65;;;12.10;99.90;;;;;;5093993;28;20119;-67
2023/10/29 05:58:38;;;;;;;11.32;1.92;;;12.20;99.90;;;;;;5094046;28;20114;-67
2023/10/29 06:01:04;;;;;;;5.60;1.70;;;12.20;99.90;;;;;;5093931;28;20048;-68
2023/10/29 06:03:30;;;;;;;11.88;2.00;;;12.30;99.90;;;;;;5093752;28;20056;-68
2023/10/29 06:05:56;;;;;;;6.85;1.67;;;12.30;99.90;;;;;;5093503;28;20020;-67
2023/10/29 06:08:22;;;;;;;7.97;1.95;;;12.30;99.90;;;;;;5094044;28;20460;-67
2023/10/29 06:10:49;;;;;;;10.32;2.13;;;12.30;99.90;;;;;;5093696;28;20032;-67
2023/10/29 06:13:15;;;;;;;10.30;1.67;;;12.30;99.90;;;;;;5093325;28;20027;-68
2023/10/29 06:15:40;;;;;;;11.38;1.92;;;12.30;99.90;;;;;;5093972;28;20023;-67
2023/10/29 06:18:06;;;;;;;12.70;2.38;;;12.30;99.90;;;;;;5092928;28;20039;-67
2023/10/29 06:20:32;;;;;;;10.27;2.00;;;12.30;99.90;;;;;;5093568;28;20161;-67
2023/10/29 06:22:59;;;;;;;10.07;2.00;;;12.20;99.90;;;;;;5093386;28;20384;-67
2023/10/29 06:25:25;;;;;;;10.77;1.90;;;12.20;99.90;;;;;;5100062;28;20550;-67
2023/10/29 06:27:50;;;;;;;9.57;1.85;;;12.10;99.90;;;;;;5100122;28;20077;-68
2023/10/29 06:30:16;;;;;;;11.48;1.88;;;12.10;99.90;;;;;;5099006;28;20051;-67
2023/10/29 06:32:43;;;;;;;11.50;1.90;;;12.00;99.90;;;;;;5104853;28;20020;-67
2023/10/29 06:35:09;;;;;;;10.13;1.70;;;12.00;99.90;;;;;;5093366;28;20024;-67
2023/10/29 06:37:34;;;;;;;10.18;1.85;;;12.00;99.90;;;;;;5094079;28;20032;-67
2023/10/29 06:40:01;;;;;;;11.55;2.20;;;12.00;99.90;;;;;;5093059;28;20028;-67
2023/10/29 06:42:26;;;;;;;11.35;2.25;;;12.00;99.90;;;;;;5105616;28;20056;-68
2023/10/29 06:44:52;;;;;;;9.27;1.65;;;12.00;99.90;;;;;;5092380;28;20116;-67
2023/10/29 06:47:17;;;;;;;13.18;1.95;;;12.00;99.90;;;;;;5106147;28;20032;-67
2023/10/29 06:49:43;;;;;;;10.57;2.25;;;12.00;99.90;;;;;;5109683;28;20065;-68
2023/10/29 06:52:09;;;;;;;13.48;2.53;;;12.10;99.90;;;;;;5092969;28;20039;-67
2023/10/29 06:54:35;;;;;;;13.73;2.10;;;12.10;99.90;;;;;;5110549;28;20043;-68
2023/10/29 06:57:01;;;;;;;12.48;2.38;;;12.20;99.90;;;;;;5092815;28;20032;-67
2023/10/29 06:59:30;;;;;;;16.75;3.70;;;12.30;99.90;;;;;;5093030;28;20470;-67
2023/10/29 07:01:58;;;;;;;13.38;3.10;;;12.40;99.90;;;;;;5094187;28;20035;-67
2023/10/29 07:04:24;;;;;;;16.45;4.55;;;12.50;99.90;;;;;;5103867;28;20042;-67
2023/10/29 07:06:49;;;;;;;15.75;3.42;;;12.40;99.90;;;;;;5103596;28;20037;-68
2023/10/29 07:09:15;;;;;;;13.75;3.83;;;12.40;99.90;;;;;;5113625;28;20410;-67
2023/10/29 07:11:45;;;;;;;17.42;4.50;;;12.30;99.90;;;;;;5098695;28;20036;-67
2023/10/29 07:14:11;;;;;;;12.23;2.40;;;12.40;99.90;;;;;;5101407;28;20027;-67
2023/10/29 07:16:39;;;;;;;11.98;2.33;;;12.40;99.90;;;;;;5101911;28;20031;-67
2023/10/29 07:19:04;;;;;;;12.43;3.15;;;12.40;99.90;;;;;;5102357;28;20040;-67
2023/10/29 07:21:30;;;;;;;14.40;4.00;;;12.40;99.90;;;;;;5100659;28;20024;-67
2023/10/29 07:23:56;;;;;;;11.30;2.70;;;12.50;99.90;;;;;;5100947;28;20456;-67
2023/10/29 07:26:22;;;;;;;10.77;1.95;;;12.50;99.90;;;;;;5098067;28;20165;-68
2023/10/29 07:28:47;;;;;;;14.45;3.67;;;12.50;99.90;;;;;;5106593;28;20028;-67
2023/10/29 07:31:13;;;;;;;12.13;2.22;;;12.50;99.90;;;;;;5100147;28;20040;-67
2023/10/29 07:33:38;;;;;;;11.63;1.42;;;12.50;99.90;;;;;;5090785;28;20024;-67
2023/10/29 07:36:05;;;;;;;9.85;2.17;;;12.50;99.90;;;;;;5092906;28;20110;-67
2023/10/29 07:38:30;;;;;;;11.93;2.10;;;12.50;99.90;;;;;;5092440;28;20109;-67
2023/10/29 07:40:56;;;;;;;6.70;2.05;;;12.50;99.90;;;;;;5093839;28;20436;-67
2023/10/29 07:43:22;;;;;;;9.38;2.28;;;12.40;99.90;;;;;;5096413;28;20024;-68
2023/10/29 07:45:51;;;;;;;14.27;2.92;;;12.40;99.90;;;;;;5096500;28;20047;-67
2023/10/29 07:48:17;;;;;;;17.73;4.78;;;12.40;99.90;;;;;;5095017;28;20361;-67
2023/10/29 07:50:52;;;;;;;12.73;2.88;;;12.40;99.90;;;;;;5094554;28;20046;-67
2023/10/29 07:53:19;;;;;;;6.32;1.95;;;12.40;99.90;;;;;;5095778;28;20077;-67
2023/10/29 07:55:44;;;;;;;13.68;3.15;;;12.50;99.90;;;;;;5096353;28;20020;-67
2023/10/29 07:58:11;;;;;;;7.13;1.80;;;12.50;99.90;;;;;;5096229;28;20139;-67
2023/10/29 08:00:36;;;;;;;8.50;2.22;;;12.60;99.90;;;;;;5094728;28;20146;-67
2023/10/29 08:03:02;;;;;;;8.60;2.60;;;12.60;99.90;;;;;;5095618;28;20035;-67
2023/10/29 08:05:28;;;;;;;9.55;2.33;;;12.70;99.90;;;;;;5095507;28;20081;-67
2023/10/29 08:07:53;;;;;;;7.20;2.25;;;12.70;99.90;;;;;;5095549;28;20031;-67
2023/10/29 08:10:19;;;;;;;14.23;3.50;;;12.70;99.90;;;;;;5095321;28;20040;-68
2023/10/29 08:12:44;;;;;;;10.65;3.70;;;12.70;99.90;;;;;;5094744;28;20059;-67
2023/10/29 08:15:10;;;;;;;10.95;2.33;;;12.80;99.90;;;;;;5094537;28;20097;-67
2023/10/29 08:17:36;;;;;;;7.95;2.00;;;12.90;99.90;;;;;;5095119;28;20067;-67
2023/10/29 08:20:02;;;;;;;6.63;1.70;;;13.00;99.90;;;;;;5095801;28;20024;-67
2023/10/29 08:22:28;;;;;;;10.95;2.88;;;13.10;99.90;;;;;;5095871;28;20043;-68
2023/10/29 08:24:54;;;;;;;8.85;2.58;;;13.30;99.90;;;;;;5095873;28;20032;-68
2023/10/29 08:27:20;;;;;;;6.40;1.02;;;13.40;99.90;;;;;;5095647;28;20058;-67
2023/10/29 08:29:45;;;;;;;11.35;2.42;;;13.40;99.90;;;;;;5088747;28;20024;-67
2023/10/29 08:32:11;;;;;;;6.32;1.80;;;13.50;99.90;;;;;;5084369;28;20105;-67
2023/10/29 08:34:36;;;;;;;8.57;1.98;;;13.40;99.90;;;;;;5090781;28;20063;-67
2023/10/29 08:37:02;;;;;;;5.28;1.77;;;13.50;99.90;;;;;;5095265;28;20426;-67
2023/10/29 08:39:29;;;;;;;9.70;1.83;;;13.40;99.90;;;;;;5086002;28;20800;-67
2023/10/29 08:41:55;;;;;;;7.93;2.20;;;13.50;99.90;;;;;;5083924;28;20025;-68
2023/10/29 08:44:20;;;;;;;10.82;1.73;;;13.70;99.90;;;;;;5084363;28;20023;-67
2023/10/29 08:46:46;;;;;;;8.55;2.60;;;13.80;99.90;;;;;;5086321;28;20040;-67
2023/10/29 08:49:12;;;;;;;11.90;2.78;;;14.00;99.90;;;;;;5084978;28;20036;-67
2023/10/29 08:51:37;;;;;;;3.00;1.30;;;14.20;99.90;;;;;;5083625;28;20028;-67
2023/10/29 08:54:04;;;;;;;9.65;1.67;;;14.40;99.90;;;;;;5084762;28;20368;-67
2023/10/29 08:56:35;;;;;;;8.57;2.95;;;14.60;99.90;;;;;;5083954;28;20020;-68
2023/10/29 08:59:02;;;;;;;;;;;14.90;99.90;;;;;;5085442;28;20048;-68
2023/10/29 09:01:28;;;;;;;10.13;2.38;;;15.20;99.90;;;;;;5084925;28;19904;-68
2023/10/29 09:03:55;;;;;;;9.20;1.88;;;15.60;99.90;;;;;;5085969;28;20029;-67
2023/10/29 09:06:21;;;;;;;8.38;2.33;;;15.70;99.90;;;;;;5083391;28;20078;-67
2023/10/29 09:08:46;;;;;;;7.38;2.15;;;15.80;99.90;;;;;;5088797;28;20476;-67
2023/10/29 09:11:14;;;;;;;5.05;1.90;;;15.70;99.90;;;;;;5085196;28;20027;-67
2023/10/29 09:13:39;;;;;;;3.38;1.00;;;15.50;99.90;;;;;;5084886;28;20036;-67
2023/10/29 09:16:05;;;;;;;8.35;1.50;;;15.20;99.90;;;;;;5091540;28;20065;-67
2023/10/29 09:18:31;;;;;;;11.52;3.38;;;14.90;99.90;;;;;;5090971;28;20105;-67
2023/10/29 09:20:57;;;;;;;10.13;2.95;;;14.70;99.90;;;;;;5083983;28;20472;-67
2023/10/29 09:23:23;;;;;;;9.48;3.13;;;14.50;99.90;;;;;;5087712;28;20029;-67
2023/10/29 09:25:49;;;;;;;6.93;2.80;;;14.40;99.90;;;;;;5084322;28;20035;-67
2023/10/29 09:28:16;;;;;;;6.57;1.85;;;14.40;99.90;;;;;;5083890;28;20111;-67
2023/10/29 09:30:42;;;;;;;5.45;1.40;;;14.40;99.90;;;;;;5082550;28;20500;-68
2023/10/29 09:33:08;;;;;;;11.23;2.75;;;14.40;99.90;;;;;;5088149;28;20028;-67
2023/10/29 09:35:37;;;;;;;10.20;1.75;;;14.30;99.90;;;;;;5085214;28;20032;-67
2023/10/29 09:38:03;;;;;;;11.32;3.17;;;14.30;99.90;;;;;;5084467;28;20291;-67
2023/10/29 09:40:29;;;;;;;4.32;1.67;;;14.40;99.90;;;;;;5086013;28;20537;-67
2023/10/29 09:42:58;;;;;;;10.82;1.50;;;14.40;99.90;;;;;;5083781;28;20118;-67
2023/10/29 09:45:26;;;;;;;11.35;3.13;;;14.40;99.90;;;;;;5083911;28;20032;-67
2023/10/29 09:47:58;;;;;;;12.73;2.50;;;14.30;99.90;;;;;;5083405;28;20024;-67
2023/10/29 09:50:24;;;;;;;6.65;1.83;;;14.30;99.90;;;;;;5084035;28;20032;-67
2023/10/29 09:52:50;;;;;;;9.98;3.53;;;14.30;99.90;;;;;;5082415;28;20070;-67
2023/10/29 09:55:18;;;;;;;9.20;1.50;;;14.20;99.90;;;;;;5082685;28;20103;-67
2023/10/29 09:57:44;;;;;;;9.27;3.47;;;14.10;99.90;;;;;;5084193;28;20039;-67
2023/10/29 10:00:10;;;;;;;17.35;3.80;;;14.10;99.90;;;;;;5084300;28;20362;-67
2023/10/29 10:02:55;;;;;;;9.70;2.05;;;14.20;99.90;;;;;;5084282;28;20036;-67
2023/10/29 10:05:22;;;;;;;7.65;2.20;;;14.20;99.90;;;;;;5084890;28;20081;-67
2023/10/29 10:07:48;;;;;;;9.43;2.90;;;14.10;99.90;;;;;;5081929;28;20028;-67
2023/10/29 10:10:14;;;;;;;11.63;2.45;;;14.20;99.90;;;;;;5084098;28;20468;-67
2023/10/29 10:12:47;;;;;;;12.45;2.38;;;14.20;99.90;;;;;;5075208;28;20039;-67
2023/10/29 10:15:16;;;;;;;10.93;2.33;;;14.30;99.90;;;;;;5093703;28;20032;-67
2023/10/29 10:17:46;;;;;;;11.88;2.75;;;14.30;99.90;;;;;;5093252;28;20468;-67
2023/10/29 10:20:13;;;;;;;9.73;3.05;;;14.40;99.90;;;;;;5091604;28;20028;-66
2023/10/29 10:22:39;;;;;;;12.00;2.60;;;14.50;99.90;;;;;;5089683;28;20043;-67
2023/10/29 10:25:05;;;;;;;8.40;1.95;;;14.70;99.90;;;;;;5095935;28;20031;-67
2023/10/29 10:27:47;;;;;;;9.38;2.00;;;14.90;99.90;;;;;;5101377;28;20036;-66
2023/10/29 10:30:23;;;;;;;12.40;2.17;;;15.10;99.90;;;;;;5104829;28;20054;-67
2023/10/29 10:32:49;;;;;;;7.30;2.08;;;15.20;99.90;;;;;;5100946;28;20035;-67
2023/10/29 10:35:14;;;;;;;14.02;2.60;;;15.30;99.90;;;;;;5101924;28;20387;-66
2023/10/29 10:37:55;;;;;;;11.95;2.20;;;15.30;99.90;;;;;;5100158;28;20054;-66
2023/10/29 10:40:23;;;;;;;10.40;2.30;;;15.30;99.90;;;;;;5097395;28;20036;-66
2023/10/29 10:42:54;;;;;;;13.35;2.60;;;15.20;99.90;;;;;;5092169;28;20115;-66
2023/10/29 10:45:26;;;;;;;15.57;3.67;;;15.20;99.90;;;;;;5091469;28;20038;-66
2023/10/29 10:47:58;;;;;;;13.95;3.47;;;15.30;99.90;;;;;;5080402;28;20027;-66
2023/10/29 10:50:27;;;;;;;12.68;2.30;;;15.40;99.90;;;;;;5074505;28;20032;-66
2023/10/29 10:52:54;;;;;;;11.90;3.03;;;15.60;99.90;;;;;;5072051;28;20048;-66
2023/10/29 10:55:21;;;;;;;13.20;3.13;;;15.60;99.90;;;;;;5071913;28;20025;-66
2023/10/29 10:57:49;;;;;;;13.68;2.50;;;15.60;99.90;;;;;;5076031;28;20127;-66
2023/10/29 11:00:16;;;;;;;10.65;1.92;;;15.60;99.90;;;;;;5072433;28;20056;-66
2023/10/29 11:02:43;;;;;;;12.85;2.30;;;15.60;99.90;;;;;;5084788;28;20032;-66
2023/10/29 11:05:13;;;;;;;12.40;2.13;;;15.60;99.90;;;;;;5086443;28;20036;-66
2023/10/29 11:07:44;;;;;;;12.88;2.35;;;15.60;99.90;;;;;;5082253;28;20096;-66
2023/10/29 11:10:13;;;;;;;13.55;2.45;;;15.70;99.90;;;;;;5085114;28;20051;-66
2023/10/29 11:12:39;;;;;;;14.82;3.05;;;15.60;99.90;;;;;;5082116;28;20032;-66
2023/10/29 11:15:13;;;;;;;11.90;2.35;;;15.50;99.90;;;;;;5081892;28;20046;-66
2023/10/29 11:17:58;;;;;;;14.95;3.88;;;15.30;99.90;;;;;;5086814;28;20492;-66
2023/10/29 11:20:39;;;;;;;14.98;2.85;;;15.10;99.90;;;;;;5086542;28;20097;-66
2023/10/29 11:23:28;;;;;;;11.30;3.72;;;15.00;99.90;;;;;;5086003;28;20063;-66
2023/10/29 11:26:20;;;;;;;17.10;3.17;;;15.20;99.90;;;;;;5095139;28;20372;-66
2023/10/29 11:28:47;;;;;;;14.55;3.35;;;15.50;99.90;;;;;;5081943;28;20032;-66
2023/10/29 11:31:13;;;;;;;17.65;4.13;;;15.50;99.90;;;;;;5090998;28;20110;-66
2023/10/29 11:33:44;;;;;;;17.70;3.88;;;15.40;99.90;;;;;;5082637;28;20099;-66
2023/10/29 11:36:35;;;;;;;17.05;5.07;;;15.40;99.90;;;;;;5085427;28;20043;-66
2023/10/29 11:39:15;;;;;;;13.05;3.33;;;15.30;99.90;;;;;;5091456;28;20039;-66
2023/10/29 11:41:42;;;;;;;15.88;2.67;;;15.20;99.90;;;;;;5095409;28;20028;-66
2023/10/29 11:44:24;;;;;;;16.77;3.08;;;15.20;99.90;;;;;;5095010;28;20023;-66
2023/10/29 11:47:01;;;;;;;;;;;15.10;99.90;;;;;;5083188;28;20029;-66
2023/10/29 11:49:27;;;;;;;15.30;3.08;;;15.10;99.90;;;;;;5091895;28;20002;-66
2023/10/29 11:51:59;;;;;;;17.05;3.15;;;15.00;99.90;;;;;;5094730;28;20040;-66
2023/10/29 11:54:25;;;;;;;13.80;3.03;;;15.00;99.90;;;;;;5094646;28;20052;-66
2023/10/29 11:56:51;;;;;;;21.05;3.47;;;15.10;99.90;;;;;;5078836;28;20036;-66
2023/10/29 11:59:17;;;;;;;15.02;2.70;;;15.50;99.90;;;;;;5088607;28;20040;-67
2023/10/29 12:01:42;;;;;;;13.57;2.67;;;16.30;99.90;;;;;;5093720;28;20032;-67
2023/10/29 12:04:09;;;;;;;15.30;2.78;;;16.80;99.90;;;;;;5104299;28;20047;-67
2023/10/29 12:06:43;;;;;;;12.98;2.70;;;17.10;99.90;;;;;;5102163;28;20085;-67
2023/10/29 12:09:17;;;;;;;13.60;3.22;;;17.20;99.90;;;;;;5116360;28;20027;-66
2023/10/29 12:11:43;;;;;;;19.08;5.68;;;17.30;99.90;;;;;;5112014;28;20111;-66
2023/10/29 12:14:09;;;;;;;13.02;3.53;;;17.40;99.90;;;;;;5095319;28;20114;-66
2023/10/29 12:16:35;;;;;;;11.20;3.03;;;17.60;99.90;;;;;;5114293;28;20062;-66
2023/10/29 12:19:04;;;;;;;16.83;4.40;;;17.60;99.90;;;;;;5115915;28;20061;-66
2023/10/29 12:21:30;;;;;;;21.27;3.85;;;17.40;99.90;;;;;;5116276;28;20024;-66
2023/10/29 12:23:57;;;;;;;16.42;3.53;;;17.40;99.90;;;;;;5110368;28;20028;-66
2023/10/29 12:26:25;;;;;;;10.38;1.95;;;17.40;99.90;;;;;;5094995;28;20032;-67
2023/10/29 12:28:51;;;;;;;12.20;2.45;;;17.60;99.90;;;;;;5095286;28;20452;-66
2023/10/29 12:31:27;;;;;;;17.48;2.90;;;17.60;99.90;;;;;;5095175;28;20111;-66
2023/10/29 12:33:59;;;;;;;15.02;2.13;;;17.70;99.90;;;;;;5083286;28;20040;-66
2023/10/29 12:36:26;;;;;;;12.57;2.33;;;17.60;99.90;;;;;;5077934;28;20554;-66
2023/10/29 12:38:53;;;;;;;12.80;3.42;;;17.70;99.90;;;;;;5081576;28;20040;-66
2023/10/29 12:41:21;;;;;;;14.25;3.00;;;18.00;99.90;;;;;;5084800;28;20167;-66